sensor_id;sensor_type;location;lat;lon;timestamp;P1;durP1;ratioP1;P2;durP2;ratioP2
69057;SDS011;56128;37.534;-122.308;2023-04-24T00:01:00;3.67;;;1.02;;
69057;SDS011;56128;37.534;-122.308;2023-04-24T00:03:27;6.28;;;1.35;;
69057;SDS011;56128;37.534;-122.308;2023-04-24T00:05:53;4.72;;;1.52;;
69057;SDS011;56128;37.534;-122.308;2023-04-24T00:08:20;4.13;;;1.20;;
69057;SDS011;56128;37.534;-122.308;2023-04-24T00:10:47;6.63;;;1.88;;
69057;SDS011;56128;37.534;-122.308;2023-04-24T00:13:14;3.22;;;0.88;;
69057;SDS011;56128;37.534;-122.308;2023-04-24T00:15:40;1.77;;;0.85;;
69057;SDS011;56128;37.534;-122.308;2023-04-24T00:18:06;2.53;;;1.13;;
69057;SDS011;56128;37.534;-122.308;2023-04-24T00:20:33;2.13;;;1.10;;
69057;SDS011;56128;37.534;-122.308;2023-04-24T00:23:01;2.97;;;0.85;;
69057;SDS011;56128;37.534;-122.308;2023-04-24T00:25:27;2.90;;;0.90;;
69057;SDS011;56128;37.534;-122.308;2023-04-24T00:27:53;4.20;;;1.30;;
69057;SDS011;56128;37.534;-122.308;2023-04-24T00:30:19;4.03;;;1.08;;
69057;SDS011;56128;37.534;-122.308;2023-04-24T00:32:46;3.10;;;1.10;;
69057;SDS011;56128;37.534;-122.308;2023-04-24T00:35:12;5.82;;;1.45;;
69057;SDS011;56128;37.534;-122.308;2023-04-24T00:37:39;4.40;;;1.40;;
69057;SDS011;56128;37.534;-122.308;2023-04-24T00:40:06;5.40;;;1.50;;
69057;SDS011;56128;37.534;-122.308;2023-04-24T00:42:32;4.55;;;1.20;;
69057;SDS011;56128;37.534;-122.308;2023-04-24T00:44:59;3.83;;;1.23;;
69057;SDS011;56128;37.534;-122.308;2023-04-24T00:47:28;4.95;;;1.42;;
69057;SDS011;56128;37.534;-122.308;2023-04-24T00:49:55;6.47;;;1.42;;
69057;SDS011;56128;37.534;-122.308;2023-04-24T00:52:21;5.18;;;1.30;;
69057;SDS011;56128;37.534;-122.308;2023-04-24T00:54:49;5.65;;;1.50;;
69057;SDS011;56128;37.534;-122.308;2023-04-24T00:57:15;7.05;;;1.90;;
69057;SDS011;56128;37.534;-122.308;2023-04-24T00:59:42;4.75;;;1.33;;
69057;SDS011;56128;37.534;-122.308;2023-04-24T01:02:09;5.35;;;1.60;;
69057;SDS011;56128;37.534;-122.308;2023-04-24T01:04:37;7.25;;;1.40;;
69057;SDS011;56128;37.534;-122.308;2023-04-24T01:07:03;6.40;;;1.35;;
69057;SDS011;56128;37.534;-122.308;2023-04-24T01:09:36;6.47;;;1.65;;
69057;SDS011;56128;37.534;-122.308;2023-04-24T01:12:06;7.03;;;1.50;;
69057;SDS011;56128;37.534;-122.308;2023-04-24T01:14:33;7.80;;;1.60;;
69057;SDS011;56128;37.534;-122.308;2023-04-24T01:16:59;5.20;;;1.45;;
69057;SDS011;56128;37.534;-122.308;2023-04-24T01:19:25;5.10;;;1.80;;
69057;SDS011;56128;37.534;-122.308;2023-04-24T01:21:53;8.60;;;2.25;;
69057;SDS011;56128;37.534;-122.308;2023-04-24T01:24:22;4.50;;;1.60;;
69057;SDS011;56128;37.534;-122.308;2023-04-24T01:26:49;7.78;;;1.58;;
69057;SDS011;56128;37.534;-122.308;2023-04-24T01:29:15;5.25;;;1.70;;
69057;SDS011;56128;37.534;-122.308;2023-04-24T01:31:42;8.82;;;2.33;;
69057;SDS011;56128;37.534;-122.308;2023-04-24T01:34:08;7.30;;;2.05;;
69057;SDS011;56128;37.534;-122.308;2023-04-24T01:36:35;7.13;;;1.92;;
69057;SDS011;56128;37.534;-122.308;2023-04-24T01:39:01;8.75;;;1.90;;
69057;SDS011;56128;37.534;-122.308;2023-04-24T01:41:29;8.90;;;1.70;;
69057;SDS011;56128;37.534;-122.308;2023-04-24T01:43:56;7.40;;;1.90;;
69057;SDS011;56128;37.534;-122.308;2023-04-24T01:46:24;8.85;;;2.35;;
69057;SDS011;56128;37.534;-122.308;2023-04-24T01:48:50;9.55;;;2.17;;
69057;SDS011;56128;37.534;-122.308;2023-04-24T01:51:18;7.57;;;1.85;;
69057;SDS011;56128;37.534;-122.308;2023-04-24T01:53:44;12.48;;;2.33;;
69057;SDS011;56128;37.534;-122.308;2023-04-24T01:56:10;9.02;;;2.83;;
69057;SDS011;56128;37.534;-122.308;2023-04-24T01:58:37;9.02;;;2.00;;
69057;SDS011;56128;37.534;-122.308;2023-04-24T02:01:06;8.55;;;2.13;;
69057;SDS011;56128;37.534;-122.308;2023-04-24T02:03:32;10.52;;;1.98;;
69057;SDS011;56128;37.534;-122.308;2023-04-24T02:05:58;7.03;;;1.80;;
69057;SDS011;56128;37.534;-122.308;2023-04-24T02:08:25;9.18;;;2.20;;
69057;SDS011;56128;37.534;-122.308;2023-04-24T02:10:51;6.40;;;1.70;;
69057;SDS011;56128;37.534;-122.308;2023-04-24T02:13:17;8.43;;;2.13;;
69057;SDS011;56128;37.534;-122.308;2023-04-24T02:15:43;13.55;;;2.20;;
69057;SDS011;56128;37.534;-122.308;2023-04-24T02:18:11;14.70;;;2.50;;
69057;SDS011;56128;37.534;-122.308;2023-04-24T02:20:38;15.15;;;2.47;;
69057;SDS011;56128;37.534;-122.308;2023-04-24T02:23:04;11.63;;;2.30;;
69057;SDS011;56128;37.534;-122.308;2023-04-24T02:25:30;9.90;;;2.78;;
69057;SDS011;56128;37.534;-122.308;2023-04-24T02:27:56;11.30;;;2.65;;
69057;SDS011;56128;37.534;-122.308;2023-04-24T02:30:23;12.68;;;2.35;;
69057;SDS011;56128;37.534;-122.308;2023-04-24T02:32:49;10.63;;;2.47;;
69057;SDS011;56128;37.534;-122.308;2023-04-24T02:35:15;10.63;;;2.88;;
69057;SDS011;56128;37.534;-122.308;2023-04-24T02:37:41;10.25;;;2.05;;
69057;SDS011;56128;37.534;-122.308;2023-04-24T02:40:08;11.57;;;2.88;;
69057;SDS011;56128;37.534;-122.308;2023-04-24T02:42:34;11.63;;;2.33;;
69057;SDS011;56128;37.534;-122.308;2023-04-24T02:45:01;8.68;;;2.28;;
69057;SDS011;56128;37.534;-122.308;2023-04-24T02:47:27;10.20;;;2.20;;
69057;SDS011;56128;37.534;-122.308;2023-04-24T02:49:53;20.13;;;2.72;;
69057;SDS011;56128;37.534;-122.308;2023-04-24T02:52:19;15.27;;;2.67;;
69057;SDS011;56128;37.534;-122.308;2023-04-24T02:54:46;13.43;;;2.67;;
69057;SDS011;56128;37.534;-122.308;2023-04-24T02:57:12;15.40;;;2.70;;
69057;SDS011;56128;37.534;-122.308;2023-04-24T02:59:41;14.20;;;2.80;;
69057;SDS011;56128;37.534;-122.308;2023-04-24T03:02:07;18.60;;;4.03;;
69057;SDS011;56128;37.534;-122.308;2023-04-24T03:04:33;11.07;;;3.25;;
69057;SDS011;56128;37.534;-122.308;2023-04-24T03:06:59;15.73;;;3.42;;
69057;SDS011;56128;37.534;-122.308;2023-04-24T03:09:26;19.92;;;3.42;;
69057;SDS011;56128;37.534;-122.308;2023-04-24T03:11:52;11.93;;;2.70;;
69057;SDS011;56128;37.534;-122.308;2023-04-24T03:14:18;13.05;;;3.03;;
69057;SDS011;56128;37.534;-122.308;2023-04-24T03:16:45;14.90;;;2.63;;
69057;SDS011;56128;37.534;-122.308;2023-04-24T03:19:11;18.42;;;3.35;;
69057;SDS011;56128;37.534;-122.308;2023-04-24T03:21:38;12.13;;;3.28;;
69057;SDS011;56128;37.534;-122.308;2023-04-24T03:24:06;17.77;;;3.85;;
69057;SDS011;56128;37.534;-122.308;2023-04-24T03:26:34;14.35;;;3.40;;
69057;SDS011;56128;37.534;-122.308;2023-04-24T03:29:01;14.25;;;3.30;;
69057;SDS011;56128;37.534;-122.308;2023-04-24T03:31:27;14.73;;;2.97;;
69057;SDS011;56128;37.534;-122.308;2023-04-24T03:33:53;20.92;;;3.95;;
69057;SDS011;56128;37.534;-122.308;2023-04-24T03:36:19;18.00;;;2.85;;
69057;SDS011;56128;37.534;-122.308;2023-04-24T03:38:46;19.00;;;3.40;;
69057;SDS011;56128;37.534;-122.308;2023-04-24T03:41:12;16.15;;;3.17;;
69057;SDS011;56128;37.534;-122.308;2023-04-24T03:43:38;13.93;;;3.40;;
69057;SDS011;56128;37.534;-122.308;2023-04-24T03:46:05;12.30;;;2.75;;
69057;SDS011;56128;37.534;-122.308;2023-04-24T03:48:32;12.73;;;3.45;;
69057;SDS011;56128;37.534;-122.308;2023-04-24T03:50:58;16.55;;;3.33;;
69057;SDS011;56128;37.534;-122.308;2023-04-24T03:53:24;18.10;;;4.45;;
69057;SDS011;56128;37.534;-122.308;2023-04-24T03:55:52;19.52;;;3.33;;
69057;SDS011;56128;37.534;-122.308;2023-04-24T03:58:18;19.27;;;4.05;;
69057;SDS011;56128;37.534;-122.308;2023-04-24T04:00:45;23.30;;;3.33;;
69057;SDS011;56128;37.534;-122.308;2023-04-24T04:03:13;14.57;;;3.45;;
69057;SDS011;56128;37.534;-122.308;2023-04-24T04:05:40;15.18;;;3.20;;
69057;SDS011;56128;37.534;-122.308;2023-04-24T04:08:06;12.43;;;3.25;;
69057;SDS011;56128;37.534;-122.308;2023-04-24T04:10:32;14.93;;;3.28;;
69057;SDS011;56128;37.534;-122.308;2023-04-24T04:12:58;15.60;;;3.40;;
69057;SDS011;56128;37.534;-122.308;2023-04-24T04:15:25;15.32;;;3.33;;
69057;SDS011;56128;37.534;-122.308;2023-04-24T04:17:51;18.80;;;3.35;;
69057;SDS011;56128;37.534;-122.308;2023-04-24T04:20:17;16.83;;;4.32;;
69057;SDS011;56128;37.534;-122.308;2023-04-24T04:22:43;16.00;;;3.63;;
69057;SDS011;56128;37.534;-122.308;2023-04-24T04:25:10;11.52;;;4.07;;
69057;SDS011;56128;37.534;-122.308;2023-04-24T04:27:36;18.83;;;3.45;;
69057;SDS011;56128;37.534;-122.308;2023-04-24T04:30:04;17.33;;;3.80;;
69057;SDS011;56128;37.534;-122.308;2023-04-24T04:32:31;24.00;;;3.55;;
69057;SDS011;56128;37.534;-122.308;2023-04-24T04:35:03;18.02;;;4.22;;
69057;SDS011;56128;37.534;-122.308;2023-04-24T04:37:31;17.75;;;3.60;;
69057;SDS011;56128;37.534;-122.308;2023-04-24T04:40:01;13.35;;;3.28;;
69057;SDS011;56128;37.534;-122.308;2023-04-24T04:42:32;19.67;;;4.50;;
69057;SDS011;56128;37.534;-122.308;2023-04-24T04:45:06;16.63;;;4.00;;
69057;SDS011;56128;37.534;-122.308;2023-04-24T04:47:37;22.25;;;4.32;;
69057;SDS011;56128;37.534;-122.308;2023-04-24T04:50:05;23.80;;;6.18;;
69057;SDS011;56128;37.534;-122.308;2023-04-24T04:52:31;12.00;;;2.97;;
69057;SDS011;56128;37.534;-122.308;2023-04-24T04:54:57;21.00;;;3.03;;
69057;SDS011;56128;37.534;-122.308;2023-04-24T04:57:23;20.77;;;4.40;;
69057;SDS011;56128;37.534;-122.308;2023-04-24T04:59:50;19.48;;;4.45;;
69057;SDS011;56128;37.534;-122.308;2023-04-24T05:02:16;18.15;;;3.78;;
69057;SDS011;56128;37.534;-122.308;2023-04-24T05:04:43;18.33;;;3.25;;
69057;SDS011;56128;37.534;-122.308;2023-04-24T05:07:10;24.50;;;4.07;;
69057;SDS011;56128;37.534;-122.308;2023-04-24T05:09:36;19.83;;;4.70;;
69057;SDS011;56128;37.534;-122.308;2023-04-24T05:12:03;20.70;;;5.35;;
69057;SDS011;56128;37.534;-122.308;2023-04-24T05:14:29;16.05;;;3.53;;
69057;SDS011;56128;37.534;-122.308;2023-04-24T05:16:55;21.15;;;4.40;;
69057;SDS011;56128;37.534;-122.308;2023-04-24T05:19:22;20.33;;;4.47;;
69057;SDS011;56128;37.534;-122.308;2023-04-24T05:21:48;16.92;;;3.33;;
69057;SDS011;56128;37.534;-122.308;2023-04-24T05:24:14;17.38;;;4.95;;
69057;SDS011;56128;37.534;-122.308;2023-04-24T05:26:40;17.30;;;3.92;;
69057;SDS011;56128;37.534;-122.308;2023-04-24T05:29:07;22.75;;;4.10;;
69057;SDS011;56128;37.534;-122.308;2023-04-24T05:31:33;19.60;;;3.40;;
69057;SDS011;56128;37.534;-122.308;2023-04-24T05:33:59;19.50;;;3.95;;
69057;SDS011;56128;37.534;-122.308;2023-04-24T05:36:26;18.73;;;3.63;;
69057;SDS011;56128;37.534;-122.308;2023-04-24T05:38:52;17.95;;;4.28;;
69057;SDS011;56128;37.534;-122.308;2023-04-24T05:41:18;22.70;;;4.65;;
69057;SDS011;56128;37.534;-122.308;2023-04-24T05:43:44;17.95;;;3.53;;
69057;SDS011;56128;37.534;-122.308;2023-04-24T05:46:11;14.65;;;4.35;;
69057;SDS011;56128;37.534;-122.308;2023-04-24T05:48:37;22.90;;;4.68;;
69057;SDS011;56128;37.534;-122.308;2023-04-24T05:51:04;16.42;;;3.90;;
69057;SDS011;56128;37.534;-122.308;2023-04-24T05:53:30;21.77;;;4.10;;
69057;SDS011;56128;37.534;-122.308;2023-04-24T05:55:56;24.35;;;4.78;;
69057;SDS011;56128;37.534;-122.308;2023-04-24T05:58:22;19.17;;;4.60;;
69057;SDS011;56128;37.534;-122.308;2023-04-24T06:00:49;19.25;;;4.00;;
69057;SDS011;56128;37.534;-122.308;2023-04-24T06:03:15;17.10;;;3.33;;
69057;SDS011;56128;37.534;-122.308;2023-04-24T06:05:41;26.30;;;4.60;;
69057;SDS011;56128;37.534;-122.308;2023-04-24T06:08:07;19.83;;;3.55;;
69057;SDS011;56128;37.534;-122.308;2023-04-24T06:10:34;18.10;;;3.33;;
69057;SDS011;56128;37.534;-122.308;2023-04-24T06:13:01;24.25;;;4.65;;
69057;SDS011;56128;37.534;-122.308;2023-04-24T06:15:28;18.45;;;4.25;;
69057;SDS011;56128;37.534;-122.308;2023-04-24T06:17:56;12.25;;;3.45;;
69057;SDS011;56128;37.534;-122.308;2023-04-24T06:20:23;18.38;;;3.60;;
69057;SDS011;56128;37.534;-122.308;2023-04-24T06:22:49;15.95;;;3.72;;
69057;SDS011;56128;37.534;-122.308;2023-04-24T06:25:16;16.95;;;3.47;;
69057;SDS011;56128;37.534;-122.308;2023-04-24T06:27:42;23.00;;;4.70;;
69057;SDS011;56128;37.534;-122.308;2023-04-24T06:30:08;16.77;;;4.40;;
69057;SDS011;56128;37.534;-122.308;2023-04-24T06:32:35;18.80;;;3.50;;
69057;SDS011;56128;37.534;-122.308;2023-04-24T06:35:01;19.08;;;3.80;;
69057;SDS011;56128;37.534;-122.308;2023-04-24T06:37:27;19.88;;;3.65;;
69057;SDS011;56128;37.534;-122.308;2023-04-24T06:39:54;18.25;;;4.47;;
69057;SDS011;56128;37.534;-122.308;2023-04-24T06:42:20;17.92;;;4.15;;
69057;SDS011;56128;37.534;-122.308;2023-04-24T06:44:47;18.92;;;3.85;;
69057;SDS011;56128;37.534;-122.308;2023-04-24T06:47:13;18.88;;;4.00;;
69057;SDS011;56128;37.534;-122.308;2023-04-24T06:49:39;23.45;;;5.03;;
69057;SDS011;56128;37.534;-122.308;2023-04-24T06:52:06;21.13;;;5.38;;
69057;SDS011;56128;37.534;-122.308;2023-04-24T06:54:32;17.48;;;4.07;;
69057;SDS011;56128;37.534;-122.308;2023-04-24T06:56:59;23.98;;;5.00;;
69057;SDS011;56128;37.534;-122.308;2023-04-24T06:59:26;21.52;;;3.83;;
69057;SDS011;56128;37.534;-122.308;2023-04-24T07:01:53;27.15;;;4.60;;
69057;SDS011;56128;37.534;-122.308;2023-04-24T07:04:20;20.40;;;3.97;;
69057;SDS011;56128;37.534;-122.308;2023-04-24T07:06:46;25.77;;;4.80;;
69057;SDS011;56128;37.534;-122.308;2023-04-24T07:09:14;25.50;;;3.70;;
69057;SDS011;56128;37.534;-122.308;2023-04-24T07:11:44;22.33;;;4.30;;
69057;SDS011;56128;37.534;-122.308;2023-04-24T07:14:11;17.02;;;4.28;;
69057;SDS011;56128;37.534;-122.308;2023-04-24T07:16:37;22.05;;;4.40;;
69057;SDS011;56128;37.534;-122.308;2023-04-24T07:19:04;19.98;;;4.05;;
69057;SDS011;56128;37.534;-122.308;2023-04-24T07:21:30;20.85;;;4.22;;
69057;SDS011;56128;37.534;-122.308;2023-04-24T07:23:57;28.20;;;4.78;;
69057;SDS011;56128;37.534;-122.308;2023-04-24T07:26:24;26.42;;;4.68;;
69057;SDS011;56128;37.534;-122.308;2023-04-24T07:28:52;21.67;;;4.03;;
69057;SDS011;56128;37.534;-122.308;2023-04-24T07:31:18;19.50;;;4.00;;
69057;SDS011;56128;37.534;-122.308;2023-04-24T07:33:45;20.15;;;3.33;;
69057;SDS011;56128;37.534;-122.308;2023-04-24T07:36:11;21.05;;;3.13;;
69057;SDS011;56128;37.534;-122.308;2023-04-24T07:38:41;23.92;;;4.20;;
69057;SDS011;56128;37.534;-122.308;2023-04-24T07:41:08;25.00;;;4.57;;
69057;SDS011;56128;37.534;-122.308;2023-04-24T07:43:34;31.08;;;4.43;;
69057;SDS011;56128;37.534;-122.308;2023-04-24T07:46:01;21.58;;;4.18;;
69057;SDS011;56128;37.534;-122.308;2023-04-24T07:48:27;18.73;;;3.65;;
69057;SDS011;56128;37.534;-122.308;2023-04-24T07:50:53;19.13;;;4.00;;
69057;SDS011;56128;37.534;-122.308;2023-04-24T07:53:20;21.58;;;4.00;;
69057;SDS011;56128;37.534;-122.308;2023-04-24T07:55:46;23.10;;;4.25;;
69057;SDS011;56128;37.534;-122.308;2023-04-24T07:58:13;14.75;;;3.22;;
69057;SDS011;56128;37.534;-122.308;2023-04-24T08:00:39;25.80;;;4.43;;
69057;SDS011;56128;37.534;-122.308;2023-04-24T08:03:05;24.23;;;4.18;;
69057;SDS011;56128;37.534;-122.308;2023-04-24T08:05:32;20.13;;;4.10;;
69057;SDS011;56128;37.534;-122.308;2023-04-24T08:07:58;27.17;;;4.10;;
69057;SDS011;56128;37.534;-122.308;2023-04-24T08:10:25;20.20;;;3.65;;
69057;SDS011;56128;37.534;-122.308;2023-04-24T08:12:51;14.38;;;4.28;;
69057;SDS011;56128;37.534;-122.308;2023-04-24T08:15:17;22.00;;;4.05;;
69057;SDS011;56128;37.534;-122.308;2023-04-24T08:17:44;20.65;;;4.25;;
69057;SDS011;56128;37.534;-122.308;2023-04-24T08:20:10;22.77;;;3.42;;
69057;SDS011;56128;37.534;-122.308;2023-04-24T08:22:41;19.95;;;4.20;;
69057;SDS011;56128;37.534;-122.308;2023-04-24T08:25:08;22.23;;;4.28;;
69057;SDS011;56128;37.534;-122.308;2023-04-24T08:27:35;18.65;;;3.67;;
69057;SDS011;56128;37.534;-122.308;2023-04-24T08:30:02;21.05;;;3.55;;
69057;SDS011;56128;37.534;-122.308;2023-04-24T08:32:30;22.15;;;3.80;;
69057;SDS011;56128;37.534;-122.308;2023-04-24T08:34:56;21.92;;;4.47;;
69057;SDS011;56128;37.534;-122.308;2023-04-24T08:37:23;23.38;;;4.95;;
69057;SDS011;56128;37.534;-122.308;2023-04-24T08:39:51;16.98;;;4.22;;
69057;SDS011;56128;37.534;-122.308;2023-04-24T08:42:17;23.27;;;4.80;;
69057;SDS011;56128;37.534;-122.308;2023-04-24T08:44:45;15.15;;;3.92;;
69057;SDS011;56128;37.534;-122.308;2023-04-24T08:47:12;23.02;;;4.55;;
69057;SDS011;56128;37.534;-122.308;2023-04-24T08:49:38;20.73;;;3.97;;
69057;SDS011;56128;37.534;-122.308;2023-04-24T08:52:05;19.27;;;5.05;;
69057;SDS011;56128;37.534;-122.308;2023-04-24T08:54:34;35.50;;;5.90;;
69057;SDS011;56128;37.534;-122.308;2023-04-24T08:57:01;24.83;;;4.80;;
69057;SDS011;56128;37.534;-122.308;2023-04-24T08:59:29;17.38;;;4.18;;
69057;SDS011;56128;37.534;-122.308;2023-04-24T09:01:56;19.30;;;3.75;;
69057;SDS011;56128;37.534;-122.308;2023-04-24T09:04:24;17.58;;;4.53;;
69057;SDS011;56128;37.534;-122.308;2023-04-24T09:06:59;19.65;;;4.65;;
69057;SDS011;56128;37.534;-122.308;2023-04-24T09:09:26;16.95;;;3.80;;
69057;SDS011;56128;37.534;-122.308;2023-04-24T09:11:56;15.65;;;3.42;;
69057;SDS011;56128;37.534;-122.308;2023-04-24T09:14:23;21.80;;;3.90;;
69057;SDS011;56128;37.534;-122.308;2023-04-24T09:16:50;17.63;;;3.78;;
69057;SDS011;56128;37.534;-122.308;2023-04-24T09:19:16;19.48;;;4.35;;
69057;SDS011;56128;37.534;-122.308;2023-04-24T09:21:45;20.00;;;4.25;;
69057;SDS011;56128;37.534;-122.308;2023-04-24T09:24:15;21.83;;;4.32;;
69057;SDS011;56128;37.534;-122.308;2023-04-24T09:26:44;13.85;;;3.60;;
69057;SDS011;56128;37.534;-122.308;2023-04-24T09:29:16;23.40;;;4.35;;
69057;SDS011;56128;37.534;-122.308;2023-04-24T09:31:44;17.45;;;4.03;;
69057;SDS011;56128;37.534;-122.308;2023-04-24T09:34:11;18.65;;;3.92;;
69057;SDS011;56128;37.534;-122.308;2023-04-24T09:36:38;20.48;;;3.40;;
69057;SDS011;56128;37.534;-122.308;2023-04-24T09:39:11;19.63;;;4.55;;
69057;SDS011;56128;37.534;-122.308;2023-04-24T09:41:44;19.60;;;4.30;;
69057;SDS011;56128;37.534;-122.308;2023-04-24T09:46:51;18.00;;;3.85;;
69057;SDS011;56128;37.534;-122.308;2023-04-24T09:49:22;24.85;;;4.75;;
69057;SDS011;56128;37.534;-122.308;2023-04-24T09:52:11;20.63;;;5.13;;
69057;SDS011;56128;37.534;-122.308;2023-04-24T09:54:37;25.35;;;5.65;;
69057;SDS011;56128;37.534;-122.308;2023-04-24T09:57:06;21.60;;;4.57;;
69057;SDS011;56128;37.534;-122.308;2023-04-24T09:59:34;21.80;;;3.90;;
69057;SDS011;56128;37.534;-122.308;2023-04-24T10:02:00;18.98;;;5.30;;
69057;SDS011;56128;37.534;-122.308;2023-04-24T10:04:27;22.60;;;5.72;;
69057;SDS011;56128;37.534;-122.308;2023-04-24T10:06:55;18.92;;;5.10;;
69057;SDS011;56128;37.534;-122.308;2023-04-24T10:09:22;23.83;;;5.07;;
69057;SDS011;56128;37.534;-122.308;2023-04-24T10:11:51;23.58;;;5.20;;
69057;SDS011;56128;37.534;-122.308;2023-04-24T10:14:19;24.50;;;5.43;;
69057;SDS011;56128;37.534;-122.308;2023-04-24T10:16:47;15.10;;;4.28;;
69057;SDS011;56128;37.534;-122.308;2023-04-24T10:19:14;20.83;;;4.47;;
69057;SDS011;56128;37.534;-122.308;2023-04-24T10:21:42;22.58;;;5.20;;
69057;SDS011;56128;37.534;-122.308;2023-04-24T10:24:18;15.25;;;4.05;;
69057;SDS011;56128;37.534;-122.308;2023-04-24T10:26:47;20.85;;;4.63;;
69057;SDS011;56128;37.534;-122.308;2023-04-24T10:29:14;19.92;;;5.13;;
69057;SDS011;56128;37.534;-122.308;2023-04-24T10:31:42;25.85;;;5.15;;
69057;SDS011;56128;37.534;-122.308;2023-04-24T10:34:13;20.77;;;5.63;;
69057;SDS011;56128;37.534;-122.308;2023-04-24T10:36:53;25.13;;;6.40;;
69057;SDS011;56128;37.534;-122.308;2023-04-24T10:39:21;26.08;;;5.57;;
69057;SDS011;56128;37.534;-122.308;2023-04-24T10:41:48;22.52;;;5.80;;
69057;SDS011;56128;37.534;-122.308;2023-04-24T10:44:15;26.70;;;5.63;;
69057;SDS011;56128;37.534;-122.308;2023-04-24T10:46:45;24.08;;;5.75;;
69057;SDS011;56128;37.534;-122.308;2023-04-24T10:49:13;27.98;;;5.78;;
69057;SDS011;56128;37.534;-122.308;2023-04-24T10:51:44;20.25;;;5.43;;
69057;SDS011;56128;37.534;-122.308;2023-04-24T10:54:29;17.95;;;5.43;;
69057;SDS011;56128;37.534;-122.308;2023-04-24T10:59:45;26.90;;;6.32;;
69057;SDS011;56128;37.534;-122.308;2023-04-24T11:02:16;21.63;;;5.25;;
69057;SDS011;56128;37.534;-122.308;2023-04-24T11:04:44;18.80;;;5.28;;
69057;SDS011;56128;37.534;-122.308;2023-04-24T11:07:11;21.55;;;5.07;;
69057;SDS011;56128;37.534;-122.308;2023-04-24T11:09:38;26.58;;;5.63;;
69057;SDS011;56128;37.534;-122.308;2023-04-24T11:12:08;29.30;;;6.78;;
69057;SDS011;56128;37.534;-122.308;2023-04-24T11:17:31;20.00;;;5.03;;
69057;SDS011;56128;37.534;-122.308;2023-04-24T11:20:06;27.25;;;5.18;;
69057;SDS011;56128;37.534;-122.308;2023-04-24T11:22:38;18.50;;;4.97;;
69057;SDS011;56128;37.534;-122.308;2023-04-24T11:25:08;26.17;;;5.97;;
69057;SDS011;56128;37.534;-122.308;2023-04-24T11:30:07;30.00;;;5.53;;
69057;SDS011;56128;37.534;-122.308;2023-04-24T11:32:36;23.27;;;4.95;;
69057;SDS011;56128;37.534;-122.308;2023-04-24T11:35:16;18.98;;;4.80;;
69057;SDS011;56128;37.534;-122.308;2023-04-24T11:37:48;17.30;;;4.75;;
69057;SDS011;56128;37.534;-122.308;2023-04-24T11:40:16;21.80;;;5.28;;
69057;SDS011;56128;37.534;-122.308;2023-04-24T11:42:51;19.70;;;5.15;;
69057;SDS011;56128;37.534;-122.308;2023-04-24T11:45:20;21.58;;;5.60;;
69057;SDS011;56128;37.534;-122.308;2023-04-24T11:47:48;20.63;;;4.15;;
69057;SDS011;56128;37.534;-122.308;2023-04-24T11:50:15;21.65;;;5.00;;
69057;SDS011;56128;37.534;-122.308;2023-04-24T11:52:44;22.17;;;5.03;;
69057;SDS011;56128;37.534;-122.308;2023-04-24T11:57:45;29.98;;;6.15;;
69057;SDS011;56128;37.534;-122.308;2023-04-24T12:00:22;25.38;;;5.50;;
69057;SDS011;56128;37.534;-122.308;2023-04-24T12:02:59;27.27;;;5.68;;
69057;SDS011;56128;37.534;-122.308;2023-04-24T12:05:38;20.75;;;5.07;;
69057;SDS011;56128;37.534;-122.308;2023-04-24T12:08:05;34.40;;;6.78;;
69057;SDS011;56128;37.534;-122.308;2023-04-24T12:10:32;25.48;;;5.30;;
69057;SDS011;56128;37.534;-122.308;2023-04-24T12:13:00;25.25;;;6.20;;
69057;SDS011;56128;37.534;-122.308;2023-04-24T12:15:26;24.98;;;5.80;;
69057;SDS011;56128;37.534;-122.308;2023-04-24T12:17:54;23.73;;;5.90;;
69057;SDS011;56128;37.534;-122.308;2023-04-24T12:20:26;26.85;;;7.38;;
69057;SDS011;56128;37.534;-122.308;2023-04-24T12:22:57;29.35;;;6.00;;
69057;SDS011;56128;37.534;-122.308;2023-04-24T12:25:26;25.90;;;5.80;;
69057;SDS011;56128;37.534;-122.308;2023-04-24T12:27:54;24.02;;;5.57;;
69057;SDS011;56128;37.534;-122.308;2023-04-24T12:30:46;24.65;;;5.70;;
69057;SDS011;56128;37.534;-122.308;2023-04-24T12:33:20;22.20;;;4.93;;
69057;SDS011;56128;37.534;-122.308;2023-04-24T12:35:47;23.92;;;6.03;;
69057;SDS011;56128;37.534;-122.308;2023-04-24T12:38:16;19.55;;;5.20;;
69057;SDS011;56128;37.534;-122.308;2023-04-24T12:41:00;28.73;;;6.40;;
69057;SDS011;56128;37.534;-122.308;2023-04-24T12:43:28;19.42;;;4.68;;
69057;SDS011;56128;37.534;-122.308;2023-04-24T12:45:54;24.50;;;5.35;;
69057;SDS011;56128;37.534;-122.308;2023-04-24T12:48:20;23.50;;;5.03;;
69057;SDS011;56128;37.534;-122.308;2023-04-24T12:50:47;26.48;;;6.47;;
69057;SDS011;56128;37.534;-122.308;2023-04-24T12:53:14;18.90;;;4.97;;
69057;SDS011;56128;37.534;-122.308;2023-04-24T12:55:41;27.00;;;6.25;;
69057;SDS011;56128;37.534;-122.308;2023-04-24T12:58:07;26.80;;;5.85;;
69057;SDS011;56128;37.534;-122.308;2023-04-24T13:00:33;28.60;;;5.38;;
69057;SDS011;56128;37.534;-122.308;2023-04-24T13:03:00;25.05;;;5.68;;
69057;SDS011;56128;37.534;-122.308;2023-04-24T13:05:26;29.20;;;6.15;;
69057;SDS011;56128;37.534;-122.308;2023-04-24T13:07:53;24.35;;;6.13;;
69057;SDS011;56128;37.534;-122.308;2023-04-24T13:10:19;25.95;;;6.32;;
69057;SDS011;56128;37.534;-122.308;2023-04-24T13:12:45;24.77;;;6.10;;
69057;SDS011;56128;37.534;-122.308;2023-04-24T13:15:12;24.58;;;5.68;;
69057;SDS011;56128;37.534;-122.308;2023-04-24T13:17:38;22.52;;;5.07;;
69057;SDS011;56128;37.534;-122.308;2023-04-24T13:20:05;25.88;;;6.03;;
69057;SDS011;56128;37.534;-122.308;2023-04-24T13:22:32;24.60;;;5.82;;
69057;SDS011;56128;37.534;-122.308;2023-04-24T13:24:58;28.48;;;5.85;;
69057;SDS011;56128;37.534;-122.308;2023-04-24T13:27:24;24.20;;;5.65;;
69057;SDS011;56128;37.534;-122.308;2023-04-24T13:29:51;33.70;;;7.32;;
69057;SDS011;56128;37.534;-122.308;2023-04-24T13:32:17;25.50;;;6.15;;
69057;SDS011;56128;37.534;-122.308;2023-04-24T13:34:43;23.98;;;5.85;;
69057;SDS011;56128;37.534;-122.308;2023-04-24T13:37:09;23.08;;;5.72;;
69057;SDS011;56128;37.534;-122.308;2023-04-24T13:39:36;23.58;;;5.53;;
69057;SDS011;56128;37.534;-122.308;2023-04-24T13:42:02;21.17;;;6.18;;
69057;SDS011;56128;37.534;-122.308;2023-04-24T13:44:29;26.80;;;6.13;;
69057;SDS011;56128;37.534;-122.308;2023-04-24T13:46:55;27.73;;;6.93;;
69057;SDS011;56128;37.534;-122.308;2023-04-24T13:49:22;33.45;;;7.40;;
69057;SDS011;56128;37.534;-122.308;2023-04-24T13:51:52;27.10;;;6.22;;
69057;SDS011;56128;37.534;-122.308;2023-04-24T13:54:19;26.73;;;6.53;;
69057;SDS011;56128;37.534;-122.308;2023-04-24T13:56:46;21.35;;;5.88;;
69057;SDS011;56128;37.534;-122.308;2023-04-24T13:59:12;21.23;;;6.07;;
69057;SDS011;56128;37.534;-122.308;2023-04-24T14:01:38;29.15;;;6.20;;
69057;SDS011;56128;37.534;-122.308;2023-04-24T14:04:05;28.23;;;5.72;;
69057;SDS011;56128;37.534;-122.308;2023-04-24T14:06:31;25.10;;;5.75;;
69057;SDS011;56128;37.534;-122.308;2023-04-24T14:08:57;20.65;;;5.07;;
69057;SDS011;56128;37.534;-122.308;2023-04-24T14:11:23;22.95;;;6.25;;
69057;SDS011;56128;37.534;-122.308;2023-04-24T14:13:49;25.58;;;6.75;;